Ivica Pjaca

Chief Scout - HNK Rijeka
19 Nov 2028
Sunday
Process

Personality

Adaptability (13) Ambition (7) Controversy (12) Loyalty (6) Pressure (13) Professionalism (16) Sportsmanship (11) Temperament (6)

Profile

Coaching Style Democratic
License Continental C
Determination 8
Man Management 11
Motivating 11
Discipline 5
Job Satisfaction
100%
Fatigue
0%
Role Chief Scout
Wage 84.2K p/w
Contract 14.03.2030

Performance

Behaviour Good
Training Effectiveness
36%
Player Development
55%
Injury Prevention
30%
Tactical Implementation
40%

Recent Events

Attended a recruitment meeting now
Attended a recruitment meeting now
Recommended a transfer target now
Attended a recruitment meeting now
Recommended a transfer target now
Recommended a transfer target now
Assessed a player 7d ago
Assessed a player 7d ago

Currently Monitoring

247
Player Club Status Ability Confidence Watched Last Observed Latest Vote
Delvin Alfonzo Deportivo Tachira Active 129 / 121 40% 4 16.11.2028 -
Jherson Mosquera Newell's Old Boys Active 130 / 122 40% 1 16.11.2028 -
Julián Palacios Envigado Active 123 / 122 40% 3 15.11.2028 -
Tomás Bottari Independiente Rivadavia Active 114 / 126 40% 1 15.11.2028 -
Agustín Sández Newell's Old Boys Active 132 / 119 40% 2 11.11.2028 -
Felipe Peña Biafore Lanús Active 141 / 130 40% 1 11.11.2028 -
Gonzalo Pérez Lanús Active 130 / 124 40% 2 09.11.2028 -
Thiago Silvero Vélez Active 123 / 136 40% 1 09.11.2028 -
Gastón Martirena Racing Club Active 139 / 126 40% 1 08.11.2028 -
Adam Wharton Crystal Palace Active 159 / 160 40% 1 08.11.2028 -
Bruno Leyes Godoy Cruz Active 124 / 127 40% 2 05.11.2028 -
Fabricio Corbalán Gimnasia La Plata Active 126 / 119 40% 1 04.11.2028 -
Augusto Schott Talleres Active 116 / 122 40% 1 04.11.2028 -
Rico Henry River Plate Active 150 / 141 40% 3 31.10.2028 -
Santiago Fernández Talleres Active 117 / 124 40% 2 30.10.2028 -
Matías Galarza Talleres Active 130 / 125 40% 2 30.10.2028 -
Facundo Mater Barracas Central Active 131 / 117 40% 1 29.10.2028 -
Sheyko Studer Independiente Rivadavia Active 130 / 123 40% 2 28.10.2028 -
Emanuel Coronel Rosario Central Active 133 / 125 40% 1 28.10.2028 -
Franco Díaz Temperley Active 118 / 125 40% 1 27.10.2028 -
Kevin López Independiente Active 117 / 122 40% 1 25.10.2028 -
Joaquín García Vélez Active 119 / 126 40% 1 25.10.2028 -
Claudio Bravo Argentinos Juniors Active 132 / 126 40% 2 24.10.2028 -
Marco Di Cesare Racing Club Active 132 / 129 40% 1 24.10.2028 -
Iván Tapia Barracas Central Active 129 / 123 40% 1 22.10.2028 -
Ignacio Vázquez Platense Active 125 / 129 40% 1 22.10.2028 -
Federico Pérez Astana Active 107 / 117 40% 1 19.10.2028 -
Ignacio Perruzzi San Lorenzo Active 127 / 130 40% 1 17.10.2028 -
Juan Pablo Pignani Platense Active 127 / 115 40% 1 16.10.2028 -
Jonathan De Irastorza Independiente Active 123 / 131 40% 1 16.10.2028 -
Alexis Steimbach Gimnasia La Plata Active 114 / 119 40% 1 15.10.2028 -
Gonzalo Luján Inter Miami CF Active 140 / 123 40% 2 14.10.2028 -
Sasha Marcich Lanús Active 123 / 125 40% 2 14.10.2028 -
Manuel Guillén Argentinos Juniors Active 111 / 123 40% 2 13.10.2028 -
Gianluca Ferrari Atlético Tucumán Active 130 / 125 40% 1 13.10.2028 -
Fredrik Sjøvold Bodo/Glimt Active 124 / 136 40% 1 11.10.2028 -
Valentín Moreno Tigre Active 114 / 121 40% 2 07.10.2028 -
Santiago Núñez Estudiantes Active 123 / 127 40% 3 04.10.2028 -
Riku Yamane Yokohama F. Marinos Active 147 / 133 40% 1 04.10.2028 -
Hernán de la Fuente Instituto Active 124 / 123 40% 1 03.10.2028 -
Alan Rodríguez Rosario Central Active 114 / 128 40% 1 01.10.2028 -
Gastón Hernández San Lorenzo Active 124 / 128 40% 1 30.09.2028 -
Lucas Souto Defensa y Justicia Active 135 / 130 40% 1 29.09.2028 -
Maizon Rodríguez Unión de Santa Fe Active 130 / 125 40% 1 27.09.2028 -
Alexis Maldonado Belgrano Active 125 / 124 40% 1 26.09.2028 -
Pedro Ramírez Deportivo Riestra Active 119 / 117 40% 1 26.09.2028 -
Stefano Moreyra Independiente Rivadavia Active 115 / 119 40% 1 25.09.2028 -
César Ibáñez Huracán Active 120 / 125 40% 1 21.09.2028 -
Nazareno Colombo Racing Club Active 130 / 127 40% 1 21.09.2028 -
Vicente Poggi Godoy Cruz Active 137 / 123 40% 1 17.09.2028 -
Siro Rosané Estudiantes Active 130 / 124 40% 1 17.09.2028 -
Lautaro Vargas Unión de Santa Fe Active 134 / 129 40% 1 10.09.2028 -
Santiago González Tigre Active 138 / 136 40% 1 10.09.2028 -
Alcides Benítez Belgrano Active 120 / 122 40% 1 07.09.2028 -
Mateusz Bogusz DC United Active 141 / 136 40% 1 22.08.2028 -
Gabriel Martinelli Arsenal Active 162 / 165 40% 1 22.08.2028 -
Lazar Samardžić Cagliari Active 149 / 151 40% 1 15.08.2028 -
Nicolò Cambiaghi Bologna Active 156 / 146 40% 1 15.08.2028 -
Joel Bagan Cardiff City Active 136 / 119 40% 6 07.08.2028 -
Kristoffer Lund Birmingham Active 142 / 134 40% 3 07.08.2028 -
Harry Wilson Leeds United Active 157 / 152 40% 1 31.07.2028 -
Stanley Mills Crewe Alexandra Active 137 / 125 40% 1 31.07.2028 -
Ousmane Diomande Nottingham Forest Active 162 / 163 40% 1 12.07.2028 -
Neco Williams Wrexham Active 147 / 154 40% 1 12.07.2028 -
Zvonimir Orsic Zadar Active 115 / 113 58% 1 26.06.2028 Approve
Malik Mothersille Stockport County Active 131 / 117 40% 1 31.05.2028 -
Francisco Machis Llaneros Active 75 / 93 40% 2 30.05.2028 -
Riquelme Thompson-Jones Accrington Stanley Active 103 / 112 40% 5 30.05.2028 -
Tyler Fletcher Rotherham United Active 119 / 118 40% 6 28.05.2028 -
Giovanni Leoni Lincoln City Active 132 / 140 40% 3 28.05.2028 -
Musa Danjuma Umraniyespor Active 85 / 113 40% 1 27.05.2028 -
Andrey Ivlev Nizhniy Novgorod Active 111 / 115 40% 2 26.05.2028 -
Andrea Cogoni Cosenza Active 113 / 112 40% 1 26.05.2028 -
Christos Mouzakitis Hull City Active 141 / 140 40% 2 23.05.2028 -
Jenson Jones Walsall Active 108 / 102 40% 1 20.05.2028 -
David Fernande PWD Bamenda Active 81 / 84 40% 1 17.05.2028 -
Hosea Michael Remo Stars Active 98 / 86 40% 3 15.05.2028 -
Honest Ahanor Atalanta Active 128 / 138 40% 5 15.05.2028 -
Makar Vysochenko Spartak Moscow Active 83 / 95 40% 2 04.05.2028 -
Federico Matarán Giana Erminio Active 102 / 114 40% 1 04.05.2028 -
Gideon Manaseh Ikorodu City Active 106 / 94 40% 1 02.05.2028 -
Nour Ashraf ENPPI Active 72 / 92 40% 3 30.04.2028 -
Kwesi Sorotu Badori Berekum Chelsea Active 97 / 97 40% 2 27.04.2028 -
Trey Nyoni Rotherham United Active 147 / 148 40% 2 26.04.2028 -
Miguel Figueiredo Benfica Active 119 / 131 40% 1 22.04.2028 -
Ahmed Zaki Masr El Makasa Active 75 / 93 40% 1 21.04.2028 -
Marko Zebić Lucko Active 112 / 118 40% 1 21.04.2028 -
Jorthy Mokio ADO Den Haag Active 138 / 142 40% 2 19.04.2028 -
Daniel Banjaqui Benfica Active 131 / 126 40% 2 15.04.2028 -
Artem Nosachev Spartak Moscow Active 89 / 80 40% 1 15.04.2028 -
Abubakar Adams Aduana Stars Active 80 / 96 40% 2 12.04.2028 -
Tobiáš Pališčák Zlin Active 102 / 108 40% 1 12.04.2028 -
Tobías Ramírez River Plate Active 127 / 132 40% 1 10.04.2028 -
Kelian Le Pironnec Mirandés Active 90 / 102 40% 1 09.04.2028 -
Luka Vušković Tottenham Active 138 / 157 40% 1 07.04.2028 -
Josh Acheampong Everton Active 144 / 147 40% 2 06.04.2028 -
Martim Cunha Porto Active 115 / 115 40% 2 05.04.2028 -
Olivier Leroux Mouscron Active 101 / 109 40% 1 04.04.2028 -
Lucas Camejo River Plate Active 96 / 92 40% 1 10.02.2028 -
Bernardo Lima Porto Active 113 / 115 40% 1 07.02.2028 -
Tomislav Adolf Tomić Dugopolje Active 99 / 109 58% 1 24.01.2028 -
Matvey Bardachev Zenit Active 107 / 117 40% 1 17.01.2028 -
Lucas Nicol Mjondalen Active 67 / 78 40% 1 17.01.2028 -
Matias Siltanen Malmo FF Active 119 / 125 40% 2 10.01.2028 -
Victor Hernandez Santa Fe Active 130 / 120 40% 2 04.01.2028 -
Mao Hosoya Santos Active 134 / 135 67% 1 01.01.2028 Approve
Dion Beljo AJ Auxerre Negotiating 131 / 132 66% 1 01.01.2028 Approve
Etiosa Ighodaro Kaizer Chiefs Active 132 / 125 40% 2 31.12.2027 -
Ignacio Russo Tigre Active 136 / 121 40% 1 31.12.2027 -
Maren Kefas Plateau United Active 104 / 97 40% 2 28.12.2027 -
Kerim Alajbegović Modena Active 137 / 137 40% 3 27.12.2027 -
Nicolás Barros Schelotto Gimnasia La Plata Active 122 / 121 40% 1 27.12.2027 -
Ryan Kavuma-McQueen Accrington Stanley Active 114 / 134 40% 1 26.12.2027 -
Pedro Baltika Active 143 / 138 40% 5 25.12.2027 -
Luca Meirelles Kudrivka Active 119 / 124 40% 1 25.12.2027 -
Matías Arias Vélez Active 111 / 120 40% 2 23.12.2027 -
Siyabonga Mabena Bidvest Wits Active 138 / 121 40% 1 23.12.2027 -
Dylan Cabral Arsenal Active 108 / 108 40% 1 22.12.2027 -
Luighi Palmeiras Active 111 / 111 40% 1 22.12.2027 -
Sindre Walle Egeli Udinese Active 133 / 139 40% 1 20.12.2027 -
Alex Verón Vélez Active 110 / 119 40% 2 18.12.2027 -
Idris Ajiya Nasarawa United Active 78 / 91 40% 1 18.12.2027 -
Alex Amaefula Kun Khalifat Active 86 / 84 40% 1 17.12.2027 -
Jayden Danns Bradford City Active 137 / 144 40% 1 15.12.2027 -
Nupe Godstime Bayelsa United Active 83 / 95 40% 2 14.12.2027 -
Ibrahim Fullah Charlton Athletic Active 125 / 129 40% 1 14.12.2027 -
Abdulrahman Hamisu Niger Tornadoes Active 77 / 80 40% 1 12.12.2027 -
Luca Williams-Barnett Walsall Active 131 / 133 40% 1 10.12.2027 -
Mateo Peralta Danubio Active 103 / 123 40% 1 08.12.2027 -
Patrik Horvat Sesvete Active 113 / 103 40% 1 07.12.2027 -
Emmanuel Ndubueze Shooting Stars Active 88 / 92 40% 1 07.12.2027 -
Olivier Mambwa Young Boys Active 100 / 116 40% 1 21.11.2027 -
Colin Guske Orlando City Active 108 / 104 40% 1 21.11.2027 -
Matteo Pérez Vinlöf Dinamo Zagreb Active 132 / 132 40% 2 20.11.2027 -
Rasmus Nehrman Gefle Active 82 / 87 40% 1 20.11.2027 -
Ivan Borges Defensores Active 81 / 93 40% 1 19.11.2027 -
Onyeuche Ujunwa Ikorodu City Active 80 / 93 40% 1 18.11.2027 -
Ayden Heaven Portsmouth Active 156 / 156 40% 1 17.11.2027 -
Marko Livaja Hajduk Split Active 138 / 138 55% 1 14.06.2027 -
Pedro de la Vega Columbus Crew Active 133 / 134 66% 1 01.06.2027 Approve
Oli McBurnie Hull City Active 133 / 128 40% 1 31.05.2027 -
Harry Clarke Preston Active 133 / 131 40% 6 27.05.2027 -
Max Conway Bolton Wanderers Active 128 / 115 40% 2 26.05.2027 -
Toby Collyer West Bromwich Albion Active 128 / 138 40% 2 25.05.2027 -
Welington Southampton Active 136 / 133 40% 3 24.05.2027 -
Jack Currie Oxford United Active 127 / 115 40% 1 23.05.2027 -
Luca Connell Barnsley Active 107 / 119 40% 1 22.05.2027 -
Luke McNally Bristol City Active 124 / 133 40% 6 21.05.2027 -
Lewis Bate Stockport County Active 117 / 124 40% 4 20.05.2027 -
Riley Owen Stevenage Active 101 / 110 40% 1 20.05.2027 -
Rhys Walters Port Vale Active 90 / 107 40% 1 19.05.2027 -
Caleb Yirenkyi Coventry City Active 128 / 147 40% 3 17.05.2027 -
Brian De Keersmaecker Oxford United Active 127 / 128 40% 1 15.05.2027 -
Derry Murkin Derby County Active 121 / 128 40% 2 13.05.2027 -
Xavier Simons Bolton Wanderers Active 113 / 122 40% 2 11.05.2027 -
Alfie Devine Preston Active 110 / 117 40% 1 11.05.2027 -
Bence Dárdai VfL Wolfsburg Active 122 / 141 40% 1 10.05.2027 -
Sascha Britschgi AC Milan Active 121 / 120 40% 1 08.05.2027 -
Aaron Morley Wycombe Wanderers Active 109 / 116 40% 2 04.05.2027 -
Max Arfsten Middlesbrough Active 136 / 126 40% 1 04.05.2027 -
Ethan Pye Stockport County Active 128 / 115 40% 5 03.05.2027 -
Ronnie Edwards Queens Park Rangers Active 141 / 129 40% 2 03.05.2027 -
Dennis Cirkin Queens Park Rangers Active 122 / 121 40% 2 02.05.2027 -
Jonathan Varane Queens Park Rangers Active 119 / 133 40% 2 02.05.2027 -
Alfie Gilchrist West Bromwich Albion Active 133 / 133 40% 1 27.04.2027 -
Max Johnston Derby County Active 123 / 130 40% 4 25.04.2027 -
Moussa Baradji Blackburn Rovers Active 133 / 119 40% 1 25.04.2027 -
Tariq Lamptey Queens Park Rangers Active 128 / 138 40% 2 24.04.2027 -
Gonçalo Oliveira Benfica Active 109 / 117 40% 2 24.04.2027 -
Alfie Doughty Millwall Active 139 / 120 40% 3 20.04.2027 -
Leandro Martins Benfica Active 102 / 98 40% 1 20.04.2027 -
Tommaso Cecotti Carpi Active 96 / 91 40% 1 19.04.2027 -
Charlie Gray Fleetwood Town Active 87 / 90 40% 1 16.04.2027 -
Darlin Yongwa Norwich City Active 134 / 117 40% 2 14.04.2027 -
Oliver Skipp Leicester City Active 133 / 122 40% 1 07.04.2027 -
Michael Baidoo Plymouth Argyle Active 125 / 127 40% 1 05.04.2027 -
Aidan Morris Middlesbrough Active 133 / 137 40% 1 02.04.2027 -
Adis Jašić Zamalek Active 145 / 118 40% 1 01.04.2027 -
Shea Charles Southampton Active 129 / 144 40% 1 28.03.2027 -
Max Bird Birmingham Active 141 / 135 40% 2 24.03.2027 -
Adrián Bernabé Parma Active 143 / 132 40% 1 23.03.2027 -
Harrison Burrows Sheffield United Active 119 / 125 40% 1 21.03.2027 -
Habib Diarra Sunderland Active 150 / 140 40% 1 15.03.2027 -
Aldair Faustino Levski Active 124 / 114 40% 1 12.03.2027 -
Bosun Lawal Stoke City Active 137 / 134 40% 1 10.03.2027 -
Lee Buchanan Sheffield Wednesday Active 120 / 119 40% 1 09.03.2027 -
Jacques Ekomié Wrexham Active 134 / 133 40% 1 08.03.2027 -
Will Fish Cardiff City Active 114 / 126 40% 1 04.03.2027 -
Adam Randell Bristol City Active 119 / 128 40% 1 02.03.2027 -
Arnór Gauti Jónsson Slaven Belupo Active 98 / 100 55% 1 25.01.2027 -
Joe Gelhardt Hull City Active 143 / 131 40% 1 31.12.2026 -
Matej Trusa DAC Dunajska Streda Active 128 / 113 40% 3 30.12.2026 -
Tyreece Campbell Charlton Athletic Active 127 / 116 40% 1 29.12.2026 -
Marko Galić Cibalia Active 104 / 97 40% 1 28.12.2026 -
Itumeleng Grobler Free State Stars Active 114 / 112 40% 2 25.12.2026 -
Arthur Beroe Active 110 / 110 40% 2 25.12.2026 -
Tyrese Campbell Sheffield United Active 136 / 118 40% 2 25.12.2026 -
Sam Bell Bristol City Active 123 / 118 40% 1 23.12.2026 -
Ilyas Ansah Hull City Active 127 / 133 40% 1 22.12.2026 -
Armstrong Oko-Flex Levski Active 117 / 124 40% 3 21.12.2026 -
Radek Vítek Middlesbrough Active 124 / 142 40% 1 20.12.2026 -
Jacques Siwe Rubin Active 127 / 118 40% 1 20.12.2026 -
Erick Dolly Black Aces Active 95 / 102 40% 3 16.12.2026 -
Antonio Đaković HNK Vukovar 1991 Active 121 / 110 40% 1 14.12.2026 -
Sota Kitano Red Bull Salzburg Active 113 / 116 40% 3 11.12.2026 -
Michele Šego Hajduk Split Active 113 / 120 40% 2 10.12.2026 -
Gianluca Saro Foggia Active 115 / 112 40% 1 08.12.2026 -
Anton Zhylkin Karpaty Active 97 / 97 40% 1 05.12.2026 -
Luka Gavran Toronto FC Active 125 / 106 40% 1 03.12.2026 -
Talles Magno New York City Active 132 / 133 40% 3 30.11.2026 -
Bruno Zdunić Dugopolje Active 103 / 97 40% 1 29.11.2026 Needs More Info
Tio Cipot NK Maribor Active 109 / 120 40% 1 29.11.2026 -
Francisco Meixedo Feirense Active 120 / 112 40% 2 27.11.2026 -
János Uram Vasas Active 100 / 99 40% 1 21.11.2026 -
Karlo Sentić Slaven Belupo Active 103 / 108 40% 1 20.11.2026 -
Oliver Petersen Odd Active 118 / 120 40% 1 20.11.2026 -
Richard Ludha MFK Skalica Active 113 / 103 40% 1 17.11.2026 -
John Pulskamp Sporting Kansas City Active 129 / 116 40% 1 17.11.2026 -
Matevž Vidovšek Olimpija Ljubljana Active 110 / 118 40% 1 12.11.2026 -
Niklas Hedl Rapid Wien Active 113 / 118 40% 1 12.11.2026 -
Vinko Rozić Istra 1961 Active 122 / 116 40% 2 04.11.2026 Needs More Info
Erik Botheim Viking Active 137 / 125 40% 1 04.11.2026 -
Germán Berterame Inter Miami CF Active 114 / 139 40% 3 01.11.2026 -
Ammar Ramadan DAC Dunajska Streda Active 131 / 118 40% 2 30.10.2026 -
Ante Matej Jurić Dinamo Zagreb Active 102 / 118 40% 1 26.10.2026 -
Bénie Traoré New York City Active 125 / 137 40% 2 24.10.2026 -
Bamba Dieng Crvena Zvezda Active 130 / 136 40% 1 16.10.2026 -
Kein Sato FC Tokyo Active 137 / 144 40% 1 09.10.2026 -
Jesus Ferreira Seattle Sounders Active 140 / 141 40% 2 04.10.2026 -
Ramiro Ruiz Rodríguez Atlético Tucumán Active 132 / 128 40% 1 27.09.2026 -
Maclyn Biokpo Jenewari Rivers United Active 102 / 96 40% 1 26.09.2026 -
Tadeo Allende Inter Miami CF Active 104 / 136 40% 1 25.09.2026 -
Martín Ojeda Orlando City Active 131 / 123 40% 2 24.09.2026 -
Victor Olatunji Real Salt Lake Active 129 / 109 40% 1 24.09.2026 -
Kelvin Yeboah Minnesota United FC Active 113 / 118 40% 3 21.09.2026 -
Wessam Abou Ali Columbus Crew Active 146 / 125 40% 2 21.09.2026 -
Biola Sabitu Remo Stars Active 99 / 89 40% 1 21.09.2026 -
Alexander Aravena Portland Timbers Active 113 / 110 40% 1 19.09.2026 -
Patrik Mijić HNK Gorica Active 101 / 114 40% 1 17.09.2026 -
Karlo Špeljak HNK Vukovar 1991 Active 110 / 111 40% 1 14.09.2026 -
Dejan Joveljić Seattle Sounders Active 123 / 136 40% 1 14.09.2026 -
Kazuki Fujita Avispa Fukuoka Active 125 / 130 40% 1 14.09.2026 -
Franko Kolić Istra 1961 Active 111 / 110 40% 1 13.09.2026 -
Fiete Arp OB Active 114 / 140 40% 1 11.09.2026 -
Jeong Sang-Bin St. Louis CITY SC Active 97 / 112 40% 1 09.09.2026 -
Brandon Vázquez Austin FC Active 135 / 108 40% 1 08.09.2026 -
Nathan Ordaz DC United Active 111 / 126 40% 1 08.09.2026 -